Time,TemperatureF,DewpointF,PressureIn,WindDirection,WindDirectionDegrees,WindSpeedMPH,WindSpeedGustMPH,Humidity,HourlyPrecipIn,Conditions,Clouds,dailyrainin,SoftwareType,DateUTC
2013-06-12 00:01:00,55.0,55.0,29.19,WNW,292,0.0,3.0,100,0.06,,,0.00,Rainwise IP-100,2013-06-12 04:01:00,
2013-06-12 00:06:00,55.0,55.0,29.19,WNW,292,0.0,0.0,100,0.00,,,0.00,Rainwise IP-100,2013-06-12 04:06:00,
2013-06-12 00:11:00,55.0,55.0,29.19,WNW,292,0.0,0.0,100,0.00,,,0.00,Rainwise IP-100,2013-06-12 04:11:00,
2013-06-12 00:17:00,55.0,55.0,29.19,WNW,292,0.0,0.0,100,0.00,,,0.00,Rainwise IP-100,2013-06-12 04:17:00,
2013-06-12 00:22:00,55.0,55.0,29.19,WNW,292,0.0,0.0,100,0.00,,,0.00,Rainwise IP-100,2013-06-12 04:22:00,
2013-06-12 00:27:00,54.9,55.0,29.18,WNW,292,0.0,0.0,100,0.00,,,0.00,Rainwise IP-100,2013-06-12 04:27:00,
2013-06-12 00:32:00,54.8,55.0,29.19,WNW,292,0.0,0.0,100,0.00,,,0.00,Rainwise IP-100,2013-06-12 04:32:00,
2013-06-12 00:37:00,54.9,55.0,29.19,WNW,292,0.0,0.0,100,0.00,,,0.00,Rainwise IP-100,2013-06-12 04:37:00,
2013-06-12 00:42:00,54.9,55.0,29.19,WNW,292,0.0,0.0,100,0.00,,,0.00,Rainwise IP-100,2013-06-12 04:42:00,
2013-06-12 00:47:00,54.9,55.0,29.19,WNW,292,0.0,0.0,100,0.00,,,0.00,Rainwise IP-100,2013-06-12 04:47:00,
2013-06-12 00:52:00,54.8,55.0,29.19,WNW,292,0.0,0.0,100,0.00,,,0.00,Rainwise IP-100,2013-06-12 04:52:00,
2013-06-12 00:57:00,54.7,54.5,29.19,WNW,292,0.0,0.0,100,0.00,,,0.00,Rainwise IP-100,2013-06-12 04:57:00,
2013-06-12 01:02:00,54.6,54.5,29.19,WNW,292,0.0,0.0,100,0.00,,,0.00,Rainwise IP-100,2013-06-12 05:02:00,
2013-06-12 01:07:00,54.6,54.5,29.19,WNW,292,0.0,1.2,100,0.00,,,0.00,Rainwise IP-100,2013-06-12 05:07:00,
2013-06-12 01:12:00,54.5,54.5,29.19,WNW,292,0.0,0.0,100,0.00,,,0.00,Rainwise IP-100,2013-06-12 05:12:00,
2013-06-12 01:17:00,54.5,54.5,29.19,WNW,292,0.0,1.6,100,0.00,,,0.00,Rainwise IP-100,2013-06-12 05:17:00,
2013-06-12 01:22:00,54.6,54.5,29.19,WNW,292,0.0,1.9,100,0.00,,,0.00,Rainwise IP-100,2013-06-12 05:22:00,
2013-06-12 01:27:00,54.6,54.5,29.19,WNW,292,1.4,1.6,100,0.00,,,0.00,Rainwise IP-100,2013-06-12 05:27:00,
2013-06-12 01:33:00,54.6,54.5,29.19,WNW,292,0.0,1.9,100,0.06,,,0.01,Rainwise IP-100,2013-06-12 05:33:00,
2013-06-12 01:38:00,54.7,54.5,29.19,WNW,292,0.0,0.0,100,0.06,,,0.01,Rainwise IP-100,2013-06-12 05:38:00,
2013-06-12 01:43:00,54.6,54.5,29.19,WNW,292,0.0,2.3,100,0.00,,,0.01,Rainwise IP-100,2013-06-12 05:43:00,
2013-06-12 01:48:00,54.6,54.5,29.19,WNW,292,0.0,1.4,100,0.00,,,0.01,Rainwise IP-100,2013-06-12 05:48:00,
2013-06-12 01:53:00,54.6,54.5,29.19,WNW,292,0.0,0.0,100,0.00,,,0.01,Rainwise IP-100,2013-06-12 05:53:00,
2013-06-12 01:58:00,54.6,54.5,29.19,WNW,292,0.0,0.0,100,0.00,,,0.01,Rainwise IP-100,2013-06-12 05:58:00,
2013-06-12 02:03:00,54.6,54.5,29.19,WNW,292,0.0,0.0,100,0.00,,,0.01,Rainwise IP-100,2013-06-12 06:03:00,
2013-06-12 02:08:00,54.6,54.5,29.19,WNW,292,0.0,0.0,100,0.00,,,0.01,Rainwise IP-100,2013-06-12 06:08:00,
2013-06-12 02:13:00,54.5,54.5,29.19,WNW,292,0.0,0.0,100,0.00,,,0.01,Rainwise IP-100,2013-06-12 06:13:00,
2013-06-12 02:18:00,54.5,54.5,29.19,SSE,157,0.0,0.0,100,0.00,,,0.01,Rainwise IP-100,2013-06-12 06:18:00,
2013-06-12 02:23:00,54.5,54.5,29.19,SSE,157,0.0,1.4,100,0.00,,,0.01,Rainwise IP-100,2013-06-12 06:23:00,
2013-06-12 02:28:00,54.6,54.5,29.19,SSE,157,0.0,0.0,100,0.00,,,0.01,Rainwise IP-100,2013-06-12 06:28:00,
2013-06-12 02:33:00,54.6,54.5,29.19,SSE,157,0.0,0.0,100,0.00,,,0.01,Rainwise IP-100,2013-06-12 06:33:00,
2013-06-12 02:38:00,54.7,54.5,29.19,SSE,157,0.0,0.0,100,0.00,,,0.01,Rainwise IP-100,2013-06-12 06:38:00,
2013-06-12 02:43:00,54.8,55.0,29.18,SSE,157,0.0,1.4,100,0.00,,,0.01,Rainwise IP-100,2013-06-12 06:43:00,
2013-06-12 02:49:00,54.8,55.0,29.18,SSE,157,0.0,1.2,100,0.00,,,0.01,Rainwise IP-100,2013-06-12 06:49:00,
2013-06-12 02:54:00,54.7,54.5,29.18,SSE,157,0.0,0.0,100,0.00,,,0.01,Rainwise IP-100,2013-06-12 06:54:00,
2013-06-12 02:59:00,54.6,54.5,29.18,SSE,157,0.0,0.0,100,0.00,,,0.01,Rainwise IP-100,2013-06-12 06:59:00,
2013-06-12 03:04:00,54.6,54.5,29.19,SSE,157,0.0,0.0,100,0.00,,,0.01,Rainwise IP-100,2013-06-12 07:04:00,
2013-06-12 03:09:00,54.6,54.5,29.19,SSE,157,0.0,0.0,100,0.00,,,0.01,Rainwise IP-100,2013-06-12 07:09:00,
2013-06-12 03:14:00,54.6,54.5,29.18,SSE,157,0.0,0.0,100,0.00,,,0.01,Rainwise IP-100,2013-06-12 07:14:00,
2013-06-12 03:19:00,54.6,54.5,29.18,SSE,157,0.0,0.0,100,0.00,,,0.01,Rainwise IP-100,2013-06-12 07:19:00,
2013-06-12 03:24:00,54.7,54.5,29.18,SSE,157,0.0,0.0,100,0.00,,,0.01,Rainwise IP-100,2013-06-12 07:24:00,
2013-06-12 03:29:00,54.7,54.5,29.18,SSE,157,0.0,1.2,100,0.00,,,0.01,Rainwise IP-100,2013-06-12 07:29:00,
2013-06-12 03:34:00,54.7,54.5,29.18,SSE,157,0.0,0.0,100,0.00,,,0.01,Rainwise IP-100,2013-06-12 07:34:00,
2013-06-12 03:39:00,54.8,55.0,29.18,SSW,202,1.4,1.4,100,0.00,,,0.01,Rainwise IP-100,2013-06-12 07:39:00,
2013-06-12 03:44:00,54.7,54.5,29.18,SSW,202,0.0,1.4,100,0.00,,,0.01,Rainwise IP-100,2013-06-12 07:44:00,
2013-06-12 03:49:00,54.6,54.5,29.18,SSW,202,0.0,0.0,100,0.00,,,0.01,Rainwise IP-100,2013-06-12 07:49:00,
2013-06-12 03:54:00,54.6,54.5,29.18,SSW,202,0.0,0.0,100,0.00,,,0.01,Rainwise IP-100,2013-06-12 07:54:00,
2013-06-12 03:59:00,54.5,54.5,29.19,SSW,202,0.0,0.0,100,0.00,,,0.01,Rainwise IP-100,2013-06-12 07:59:00,
2013-06-12 04:05:00,54.5,54.5,29.18,SSW,202,0.0,0.0,100,0.00,,,0.01,Rainwise IP-100,2013-06-12 08:05:00,
2013-06-12 04:10:00,54.5,54.5,29.19,SSW,202,0.0,0.0,100,0.00,,,0.01,Rainwise IP-100,2013-06-12 08:10:00,
2013-06-12 04:15:00,54.5,54.5,29.19,SSW,202,0.0,0.0,100,0.00,,,0.01,Rainwise IP-100,2013-06-12 08:15:00,
2013-06-12 04:20:00,54.5,54.5,29.19,SSW,202,0.0,0.0,100,0.00,,,0.01,Rainwise IP-100,2013-06-12 08:20:00,
2013-06-12 04:25:00,54.5,54.5,29.19,SSW,202,0.0,0.0,100,0.00,,,0.01,Rainwise IP-100,2013-06-12 08:25:00,
2013-06-12 04:30:00,54.5,54.5,29.19,SSW,202,0.0,0.0,100,0.00,,,0.01,Rainwise IP-100,2013-06-12 08:30:00,
2013-06-12 04:35:00,54.5,54.5,29.19,SSW,202,0.0,0.0,100,0.00,,,0.01,Rainwise IP-100,2013-06-12 08:35:00,
2013-06-12 04:40:00,54.5,54.5,29.19,West,270,0.0,0.0,100,0.00,,,0.01,Rainwise IP-100,2013-06-12 08:40:00,
2013-06-12 04:45:00,54.5,54.5,29.19,WNW,292,0.0,0.0,100,0.00,,,0.01,Rainwise IP-100,2013-06-12 08:45:00,
2013-06-12 04:50:00,54.5,54.5,29.20,WNW,292,0.0,0.0,100,0.00,,,0.01,Rainwise IP-100,2013-06-12 08:50:00,
2013-06-12 04:55:00,54.6,54.5,29.20,North,360,0.0,3.0,100,0.00,,,0.01,Rainwise IP-100,2013-06-12 08:55:00,
2013-06-12 05:00:00,54.6,54.5,29.20,North,360,0.0,1.9,100,0.00,,,0.01,Rainwise IP-100,2013-06-12 09:00:00,
2013-06-12 05:05:00,54.7,54.5,29.20,NNW,337,0.0,4.0,100,0.00,,,0.01,Rainwise IP-100,2013-06-12 09:05:00,
2013-06-12 05:10:00,54.7,54.5,29.20,WNW,292,1.6,4.4,100,0.00,,,0.01,Rainwise IP-100,2013-06-12 09:10:00,
2013-06-12 05:16:00,54.7,54.5,29.20,NNE,22,2.6,6.5,100,0.00,,,0.01,Rainwise IP-100,2013-06-12 09:16:00,
2013-06-12 05:21:00,54.6,54.5,29.21,NNW,337,0.0,3.3,100,0.00,,,0.01,Rainwise IP-100,2013-06-12 09:21:00,
2013-06-12 05:26:00,54.6,54.5,29.21,North,360,2.3,4.7,100,0.00,,,0.01,Rainwise IP-100,2013-06-12 09:26:00,
2013-06-12 05:31:00,54.6,54.5,29.21,NNW,337,6.5,9.8,100,0.00,,,0.02,Rainwise IP-100,2013-06-12 09:31:00,
2013-06-12 05:36:00,54.5,54.5,29.21,North,360,3.0,6.8,100,0.06,,,0.02,Rainwise IP-100,2013-06-12 09:36:00,
2013-06-12 05:41:00,54.5,54.5,29.22,NNE,22,0.0,7.7,100,0.06,,,0.02,Rainwise IP-100,2013-06-12 09:41:00,
2013-06-12 05:46:00,54.4,54.5,29.22,NNW,337,2.3,7.5,100,0.00,,,0.02,Rainwise IP-100,2013-06-12 09:46:00,
2013-06-12 05:51:00,54.4,54.5,29.22,NNW,337,3.3,6.1,100,0.00,,,0.02,Rainwise IP-100,2013-06-12 09:51:00,
2013-06-12 05:56:00,54.5,54.5,29.23,NNW,337,1.4,5.4,100,0.00,,,0.02,Rainwise IP-100,2013-06-12 09:56:00,
2013-06-12 06:01:00,54.5,54.5,29.22,North,360,4.4,6.5,100,0.00,,,0.02,Rainwise IP-100,2013-06-12 10:01:00,
2013-06-12 06:06:00,54.5,54.5,29.23,NNW,337,3.0,6.1,100,0.00,,,0.02,Rainwise IP-100,2013-06-12 10:06:00,
2013-06-12 06:11:00,54.5,54.5,29.23,NNW,337,1.4,5.1,100,0.00,,,0.02,Rainwise IP-100,2013-06-12 10:11:00,
2013-06-12 06:16:00,54.6,54.5,29.23,North,360,3.7,3.7,100,0.00,,,0.02,Rainwise IP-100,2013-06-12 10:16:00,
2013-06-12 06:21:00,54.6,54.5,29.24,SSW,202,0.0,4.0,100,0.00,,,0.02,Rainwise IP-100,2013-06-12 10:21:00,
2013-06-12 06:26:00,54.7,54.5,29.23,NW,315,1.6,5.8,100,0.00,,,0.02,Rainwise IP-100,2013-06-12 10:26:00,
2013-06-12 06:32:00,54.8,55.0,29.24,WNW,292,0.0,7.7,100,0.00,,,0.02,Rainwise IP-100,2013-06-12 10:32:00,
2013-06-12 06:37:00,54.9,55.0,29.23,ENE,67,0.0,2.3,100,0.00,,,0.02,Rainwise IP-100,2013-06-12 10:37:00,
2013-06-12 06:42:00,55.0,55.0,29.24,NNW,337,2.6,2.6,100,0.00,,,0.02,Rainwise IP-100,2013-06-12 10:42:00,
2013-06-12 06:47:00,55.0,55.0,29.24,NE,45,1.4,9.8,99,0.00,,,0.02,Rainwise IP-100,2013-06-12 10:47:00,
2013-06-12 06:52:00,55.2,55.0,29.24,ENE,67,0.0,4.2,99,0.00,,,0.02,Rainwise IP-100,2013-06-12 10:52:00,
2013-06-12 06:57:00,55.3,55.0,29.24,NNW,337,5.6,7.9,99,0.00,,,0.02,Rainwise IP-100,2013-06-12 10:57:00,
2013-06-12 07:02:00,55.3,55.0,29.24,North,360,3.0,6.8,99,0.00,,,0.02,Rainwise IP-100,2013-06-12 11:02:00,
2013-06-12 07:07:00,55.4,54.5,29.24,WNW,292,2.8,6.3,98,0.00,,,0.02,Rainwise IP-100,2013-06-12 11:07:00,
2013-06-12 07:12:00,55.5,55.0,29.24,NNW,337,6.3,11.9,98,0.00,,,0.02,Rainwise IP-100,2013-06-12 11:12:00,
2013-06-12 07:17:00,55.6,55.0,29.25,ENE,67,1.6,8.6,98,0.00,,,0.02,Rainwise IP-100,2013-06-12 11:17:00,
2013-06-12 07:22:00,55.9,55.0,29.24,NNE,22,2.1,7.2,98,0.00,,,0.02,Rainwise IP-100,2013-06-12 11:22:00,
2013-06-12 07:27:00,56.2,55.0,29.24,WNW,292,5.6,9.8,97,0.00,,,0.02,Rainwise IP-100,2013-06-12 11:27:00,
2013-06-12 07:30:00,56.3,56.0,29.25,NNE,22,5.8,12.4,97,0.00,,,0.02,Rainwise IP-100,2013-06-12 11:30:00,
2013-06-12 07:35:00,56.6,55.0,29.25,NNE,22,6.3,11.0,96,0.00,,,0.02,Rainwise IP-100,2013-06-12 11:35:00,
2013-06-12 07:40:00,56.8,56.0,29.24,NNW,337,4.4,11.4,95,0.00,,,0.02,Rainwise IP-100,2013-06-12 11:40:00,
2013-06-12 07:45:00,56.8,56.0,29.25,NNE,22,7.9,9.8,95,0.00,,,0.02,Rainwise IP-100,2013-06-12 11:45:00,
2013-06-12 07:50:00,56.9,55.0,29.25,NNW,337,6.5,9.6,94,0.00,,,0.02,Rainwise IP-100,2013-06-12 11:50:00,
2013-06-12 07:55:00,57.0,55.0,29.25,NNW,337,5.8,12.1,94,0.00,,,0.02,Rainwise IP-100,2013-06-12 11:55:00,
2013-06-12 08:01:00,57.1,55.0,29.25,North,360,7.5,12.1,93,0.00,,,0.02,Rainwise IP-100,2013-06-12 12:01:00,
2013-06-12 08:06:00,57.2,55.0,29.25,North,360,4.4,12.4,93,0.00,,,0.02,Rainwise IP-100,2013-06-12 12:06:00,
2013-06-12 08:11:00,57.4,55.0,29.25,NNE,22,5.4,10.5,92,0.00,,,0.02,Rainwise IP-100,2013-06-12 12:11:00,
2013-06-12 08:16:00,57.5,55.0,29.25,NNE,22,4.9,14.7,92,0.00,,,0.02,Rainwise IP-100,2013-06-12 12:16:00,
2013-06-12 08:21:00,57.6,55.0,29.26,NNE,22,7.2,16.8,91,0.00,,,0.02,Rainwise IP-100,2013-06-12 12:21:00,
2013-06-12 08:26:00,57.8,56.0,29.25,NW,315,4.7,13.5,91,0.00,,,0.02,Rainwise IP-100,2013-06-12 12:26:00,
2013-06-12 08:31:00,58.0,55.0,29.26,WSW,247,10.5,15.9,90,0.00,,,0.02,Rainwise IP-100,2013-06-12 12:31:00,
2013-06-12 08:36:00,58.1,55.0,29.26,ENE,67,6.1,14.2,90,0.00,,,0.02,Rainwise IP-100,2013-06-12 12:36:00,
2013-06-12 08:41:00,58.1,55.0,29.26,ENE,67,4.4,11.4,89,0.00,,,0.02,Rainwise IP-100,2013-06-12 12:41:00,
2013-06-12 08:46:00,58.0,55.0,29.26,North,360,5.1,15.2,89,0.00,,,0.02,Rainwise IP-100,2013-06-12 12:46:00,
2013-06-12 08:51:00,58.1,55.0,29.26,NNW,337,6.3,15.2,89,0.00,,,0.02,Rainwise IP-100,2013-06-12 12:51:00,
2013-06-12 08:56:00,58.3,55.0,29.26,NNE,22,3.3,14.2,89,0.00,,,0.02,Rainwise IP-100,2013-06-12 12:56:00,
2013-06-12 09:01:00,58.4,54.5,29.26,NNE,22,4.0,16.3,88,0.00,,,0.02,Rainwise IP-100,2013-06-12 13:01:00,
2013-06-12 09:06:00,58.6,55.0,29.26,NNW,337,10.0,11.7,88,0.00,,,0.02,Rainwise IP-100,2013-06-12 13:06:00,
2013-06-12 09:11:00,58.9,55.0,29.26,NNW,337,0.0,16.3,87,0.00,,,0.02,Rainwise IP-100,2013-06-12 13:11:00,
2013-06-12 09:17:00,58.9,55.0,29.27,NNW,337,9.6,14.2,87,0.00,,,0.02,Rainwise IP-100,2013-06-12 13:17:00,
2013-06-12 09:22:00,58.8,55.0,29.26,NE,45,6.8,17.5,87,0.00,,,0.02,Rainwise IP-100,2013-06-12 13:22:00,
2013-06-12 09:27:00,58.8,55.0,29.27,NNE,22,8.2,14.0,87,0.00,,,0.02,Rainwise IP-100,2013-06-12 13:27:00,
2013-06-12 09:32:00,58.5,55.0,29.26,North,360,9.1,16.1,87,0.00,,,0.02,Rainwise IP-100,2013-06-12 13:32:00,
2013-06-12 09:37:00,58.4,54.5,29.27,NNE,22,7.7,17.7,87,0.00,,,0.02,Rainwise IP-100,2013-06-12 13:37:00,
2013-06-12 09:42:00,58.5,55.0,29.27,North,360,8.9,20.5,87,0.00,,,0.02,Rainwise IP-100,2013-06-12 13:42:00,
2013-06-12 09:47:00,58.5,55.0,29.27,NNE,22,11.4,14.9,87,0.00,,,0.02,Rainwise IP-100,2013-06-12 13:47:00,
2013-06-12 09:52:00,58.6,55.0,29.27,NNW,337,5.6,13.5,87,0.00,,,0.02,Rainwise IP-100,2013-06-12 13:52:00,
2013-06-12 09:57:00,58.9,55.0,29.27,NNE,22,7.0,11.7,87,0.00,,,0.02,Rainwise IP-100,2013-06-12 13:57:00,
2013-06-12 10:02:00,59.2,55.0,29.27,NNW,337,6.1,10.0,87,0.00,,,0.02,Rainwise IP-100,2013-06-12 14:02:00,
2013-06-12 10:07:00,59.6,55.0,29.27,NNE,22,8.2,16.1,87,0.00,,,0.02,Rainwise IP-100,2013-06-12 14:07:00,
2013-06-12 10:12:00,59.9,55.0,29.27,NNE,22,13.3,16.8,85,0.00,,,0.02,Rainwise IP-100,2013-06-12 14:12:00,
2013-06-12 10:17:00,59.8,55.0,29.27,NNW,337,7.9,19.8,84,0.00,,,0.02,Rainwise IP-100,2013-06-12 14:17:00,
2013-06-12 10:22:00,59.7,54.5,29.28,North,360,12.4,20.3,84,0.00,,,0.02,Rainwise IP-100,2013-06-12 14:22:00,
2013-06-12 10:27:00,59.8,55.0,29.28,North,360,9.6,14.7,84,0.00,,,0.02,Rainwise IP-100,2013-06-12 14:27:00,
2013-06-12 10:33:00,59.9,55.0,29.28,NNE,22,5.8,13.1,84,0.00,,,0.02,Rainwise IP-100,2013-06-12 14:33:00,
2013-06-12 10:38:00,59.6,54.0,29.28,NNE,22,8.6,15.2,83,0.00,,,0.02,Rainwise IP-100,2013-06-12 14:38:00,
2013-06-12 10:43:00,59.3,54.5,29.29,NNW,337,15.4,17.5,84,0.00,,,0.02,Rainwise IP-100,2013-06-12 14:43:00,
2013-06-12 10:48:00,59.2,54.0,29.29,ENE,67,6.3,17.0,84,0.00,,,0.02,Rainwise IP-100,2013-06-12 14:48:00,
2013-06-12 10:53:00,59.3,54.5,29.29,NNW,337,8.2,16.8,84,0.00,,,0.02,Rainwise IP-100,2013-06-12 14:53:00,
2013-06-12 10:58:00,59.5,54.5,29.29,North,360,11.0,16.6,84,0.00,,,0.02,Rainwise IP-100,2013-06-12 14:58:00,
2013-06-12 11:03:00,59.6,54.0,29.29,North,360,9.3,15.6,83,0.00,,,0.02,Rainwise IP-100,2013-06-12 15:03:00,
2013-06-12 11:08:00,59.6,54.0,29.29,NNE,22,9.8,18.9,83,0.00,,,0.02,Rainwise IP-100,2013-06-12 15:08:00,
2013-06-12 11:13:00,59.4,54.0,29.29,NNE,22,10.3,17.7,83,0.00,,,0.02,Rainwise IP-100,2013-06-12 15:13:00,
2013-06-12 11:18:00,59.3,54.0,29.30,NNE,22,11.9,21.0,83,0.00,,,0.02,Rainwise IP-100,2013-06-12 15:18:00,
2013-06-12 11:23:00,59.2,54.0,29.30,NNW,337,16.1,16.1,83,0.00,,,0.02,Rainwise IP-100,2013-06-12 15:23:00,
2013-06-12 11:28:00,59.0,54.0,29.31,NNW,337,8.4,18.4,84,0.00,,,0.02,Rainwise IP-100,2013-06-12 15:28:00,
2013-06-12 11:33:00,58.9,54.0,29.31,NNE,22,6.3,19.4,84,0.00,,,0.02,Rainwise IP-100,2013-06-12 15:33:00,
2013-06-12 11:38:00,59.1,54.0,29.30,WNW,292,15.6,17.0,84,0.00,,,0.02,Rainwise IP-100,2013-06-12 15:38:00,
2013-06-12 11:43:00,59.4,54.5,29.31,NNE,22,7.7,16.8,84,0.00,,,0.02,Rainwise IP-100,2013-06-12 15:43:00,
2013-06-12 11:49:00,59.8,54.5,29.31,NNW,337,7.9,19.4,83,0.00,,,0.02,Rainwise IP-100,2013-06-12 15:49:00,
2013-06-12 11:54:00,60.0,54.5,29.31,NNW,337,14.0,20.8,82,0.00,,,0.02,Rainwise IP-100,2013-06-12 15:54:00,
2013-06-12 11:59:00,60.1,54.0,29.31,NNE,22,7.9,20.3,81,0.00,,,0.02,Rainwise IP-100,2013-06-12 15:59:00,
2013-06-12 12:03:00,60.1,54.0,29.31,North,360,10.7,17.3,81,0.00,,,0.02,Rainwise IP-100,2013-06-12 16:03:00,
2013-06-12 12:08:00,60.2,54.0,29.31,NNE,22,9.8,20.8,81,0.00,,,0.02,Rainwise IP-100,2013-06-12 16:08:00,
2013-06-12 12:13:00,60.3,54.0,29.31,North,360,9.8,16.3,80,0.00,,,0.02,Rainwise IP-100,2013-06-12 16:13:00,
2013-06-12 12:18:00,60.5,54.0,29.32,NNE,22,11.7,20.8,80,0.00,,,0.02,Rainwise IP-100,2013-06-12 16:18:00,
2013-06-12 12:23:00,61.0,54.5,29.30,NNW,337,22.4,22.4,80,0.00,,,0.02,Rainwise IP-100,2013-06-12 16:23:00,
2013-06-12 12:28:00,61.6,54.5,29.31,NNE,22,8.4,24.0,79,0.00,,,0.02,Rainwise IP-100,2013-06-12 16:28:00,
2013-06-12 12:33:00,61.8,54.5,29.32,NNE,22,6.1,20.1,77,0.00,,,0.02,Rainwise IP-100,2013-06-12 16:33:00,
2013-06-12 12:38:00,61.6,54.0,29.32,NNW,337,12.4,15.6,77,0.00,,,0.02,Rainwise IP-100,2013-06-12 16:38:00,
2013-06-12 12:43:00,61.5,54.5,29.32,NNE,22,9.6,18.4,78,0.00,,,0.02,Rainwise IP-100,2013-06-12 16:43:00,
2013-06-12 12:49:00,61.8,54.5,29.32,NNW,337,12.6,16.8,77,0.00,,,0.02,Rainwise IP-100,2013-06-12 16:49:00,
2013-06-12 12:54:00,62.1,54.5,29.33,NNE,22,15.4,15.4,77,0.00,,,0.02,Rainwise IP-100,2013-06-12 16:54:00,
2013-06-12 12:59:00,62.5,54.5,29.32,NNW,337,11.9,20.1,76,0.00,,,0.02,Rainwise IP-100,2013-06-12 16:59:00,
2013-06-12 13:04:00,62.9,55.0,29.32,NNE,22,5.8,21.5,75,0.00,,,0.02,Rainwise IP-100,2013-06-12 17:04:00,
2013-06-12 13:09:00,62.9,55.0,29.33,ENE,67,5.1,21.0,75,0.00,,,0.02,Rainwise IP-100,2013-06-12 17:09:00,
2013-06-12 13:14:00,62.9,55.0,29.32,NNW,337,14.5,21.5,75,0.00,,,0.02,Rainwise IP-100,2013-06-12 17:14:00,
2013-06-12 13:19:00,63.4,55.0,29.32,NNE,22,11.7,24.0,74,0.00,,,0.02,Rainwise IP-100,2013-06-12 17:19:00,
2013-06-12 13:24:00,63.7,54.5,29.32,NNE,22,8.9,25.2,73,0.00,,,0.02,Rainwise IP-100,2013-06-12 17:24:00,
2013-06-12 13:29:00,63.3,54.5,29.33,NNW,337,13.5,22.6,73,0.00,,,0.02,Rainwise IP-100,2013-06-12 17:29:00,
2013-06-12 13:34:00,62.8,54.0,29.33,NNE,22,5.6,18.4,73,0.00,,,0.02,Rainwise IP-100,2013-06-12 17:34:00,
2013-06-12 13:39:00,62.4,54.0,29.33,NNW,337,15.2,22.9,73,0.00,,,0.02,Rainwise IP-100,2013-06-12 17:39:00,
2013-06-12 13:44:00,62.4,54.0,29.33,NNW,337,11.4,19.6,74,0.00,,,0.02,Rainwise IP-100,2013-06-12 17:44:00,
2013-06-12 13:50:00,62.6,54.0,29.33,NNE,22,11.9,18.4,74,0.00,,,0.02,Rainwise IP-100,2013-06-12 17:50:00,
2013-06-12 13:55:00,62.8,54.0,29.33,NNE,22,15.2,20.1,73,0.00,,,0.02,Rainwise IP-100,2013-06-12 17:55:00,
2013-06-12 14:00:00,63.1,54.0,29.33,North,360,17.5,21.2,73,0.00,,,0.02,Rainwise IP-100,2013-06-12 18:00:00,
2013-06-12 14:05:00,63.6,54.0,29.33,NNW,337,11.7,22.9,72,0.00,,,0.02,Rainwise IP-100,2013-06-12 18:05:00,
2013-06-12 14:10:00,64.2,54.5,29.33,NNW,337,7.0,19.4,71,0.00,,,0.02,Rainwise IP-100,2013-06-12 18:10:00,
2013-06-12 14:15:00,64.4,54.5,29.33,North,360,9.8,17.3,71,0.00,,,0.02,Rainwise IP-100,2013-06-12 18:15:00,
2013-06-12 14:20:00,64.3,54.5,29.33,NNE,22,7.7,27.0,70,0.00,,,0.02,Rainwise IP-100,2013-06-12 18:20:00,
2013-06-12 14:25:00,64.2,53.5,29.34,NNW,337,10.0,25.4,69,0.00,,,0.02,Rainwise IP-100,2013-06-12 18:25:00,
2013-06-12 14:30:00,64.3,54.0,29.33,North,360,13.3,16.6,69,0.00,,,0.02,Rainwise IP-100,2013-06-12 18:30:00,
2013-06-12 14:35:00,64.4,54.0,29.33,ENE,67,8.2,17.7,69,0.00,,,0.02,Rainwise IP-100,2013-06-12 18:35:00,
2013-06-12 14:40:00,64.5,54.0,29.34,NE,45,4.9,17.5,69,0.00,,,0.02,Rainwise IP-100,2013-06-12 18:40:00,
2013-06-12 14:45:00,64.9,54.0,29.34,NNW,337,16.8,22.4,68,0.00,,,0.02,Rainwise IP-100,2013-06-12 18:45:00,
2013-06-12 14:50:00,65.1,54.0,29.34,ENE,67,5.8,26.1,67,0.00,,,0.02,Rainwise IP-100,2013-06-12 18:50:00,
2013-06-12 14:55:00,65.3,54.0,29.33,North,360,10.0,22.6,66,0.00,,,0.02,Rainwise IP-100,2013-06-12 18:55:00,
2013-06-12 15:00:00,65.3,54.0,29.34,North,360,13.1,18.0,66,0.00,,,0.02,Rainwise IP-100,2013-06-12 19:00:00,
2013-06-12 15:06:00,65.1,53.5,29.35,NNE,22,9.6,23.3,66,0.00,,,0.02,Rainwise IP-100,2013-06-12 19:06:00,
2013-06-12 15:11:00,65.1,53.5,29.34,NNW,337,12.8,18.9,66,0.00,,,0.02,Rainwise IP-100,2013-06-12 19:11:00,
2013-06-12 15:16:00,65.0,53.5,29.35,North,360,9.6,18.0,66,0.00,,,0.02,Rainwise IP-100,2013-06-12 19:16:00,
2013-06-12 15:21:00,64.8,54.0,29.35,NNE,22,10.0,16.3,67,0.00,,,0.02,Rainwise IP-100,2013-06-12 19:21:00,
2013-06-12 15:26:00,64.7,53.5,29.34,NNW,337,7.9,20.5,67,0.00,,,0.02,Rainwise IP-100,2013-06-12 19:26:00,
2013-06-12 15:31:00,64.7,53.0,29.34,NNE,22,11.2,26.1,66,0.00,,,0.02,Rainwise IP-100,2013-06-12 19:31:00,
2013-06-12 15:36:00,64.8,53.5,29.34,NNW,337,16.8,21.0,66,0.00,,,0.02,Rainwise IP-100,2013-06-12 19:36:00,
2013-06-12 15:41:00,65.3,53.5,29.33,NNW,337,11.2,19.4,65,0.00,,,0.02,Rainwise IP-100,2013-06-12 19:41:00,
2013-06-12 15:46:00,65.8,54.0,29.34,ENE,67,9.1,15.6,65,0.00,,,0.02,Rainwise IP-100,2013-06-12 19:46:00,
2013-06-12 15:51:00,65.9,53.5,29.34,NNE,22,8.9,18.0,64,0.00,,,0.02,Rainwise IP-100,2013-06-12 19:51:00,
2013-06-12 15:56:00,65.9,53.5,29.34,NNW,337,10.7,24.5,64,0.00,,,0.02,Rainwise IP-100,2013-06-12 19:56:00,
2013-06-12 16:01:00,66.6,53.5,29.34,NNW,337,12.4,19.4,62,0.00,,,0.02,Rainwise IP-100,2013-06-12 20:01:00,
2013-06-12 16:06:00,66.8,53.0,29.34,NNW,337,16.1,23.3,61,0.00,,,0.02,Rainwise IP-100,2013-06-12 20:06:00,
2013-06-12 16:11:00,66.5,53.0,29.34,NNW,337,10.3,19.8,61,0.00,,,0.02,Rainwise IP-100,2013-06-12 20:11:00,
2013-06-12 16:16:00,66.5,53.0,29.34,NNE,22,8.4,26.3,61,0.00,,,0.02,Rainwise IP-100,2013-06-12 20:16:00,
2013-06-12 16:22:00,66.5,53.0,29.35,NNE,22,6.8,22.4,61,0.00,,,0.02,Rainwise IP-100,2013-06-12 20:22:00,
2013-06-12 16:27:00,66.5,53.0,29.34,NNW,337,10.0,21.0,61,0.00,,,0.02,Rainwise IP-100,2013-06-12 20:27:00,
2013-06-12 16:32:00,66.6,53.0,29.34,NNW,337,9.1,19.4,60,0.00,,,0.02,Rainwise IP-100,2013-06-12 20:32:00,
2013-06-12 16:37:00,66.6,53.0,29.35,NW,315,8.9,21.2,60,0.00,,,0.02,Rainwise IP-100,2013-06-12 20:37:00,
2013-06-12 16:42:00,66.7,53.0,29.35,NNW,337,21.2,26.6,60,0.00,,,0.02,Rainwise IP-100,2013-06-12 20:42:00,
2013-06-12 16:47:00,66.8,52.0,29.35,NNE,22,19.4,25.6,59,0.00,,,0.02,Rainwise IP-100,2013-06-12 20:47:00,
2013-06-12 16:52:00,66.8,52.0,29.35,NNW,337,13.3,19.4,59,0.00,,,0.02,Rainwise IP-100,2013-06-12 20:52:00,
2013-06-12 16:57:00,66.9,53.0,29.34,NNW,337,8.9,25.4,60,0.00,,,0.02,Rainwise IP-100,2013-06-12 20:57:00,
2013-06-12 17:02:00,67.0,53.0,29.35,NNW,337,15.4,24.5,59,0.00,,,0.02,Rainwise IP-100,2013-06-12 21:02:00,
2013-06-12 17:07:00,66.6,52.0,29.35,NNE,22,16.1,23.8,59,0.00,,,0.02,Rainwise IP-100,2013-06-12 21:07:00,
2013-06-12 17:12:00,66.3,51.0,29.35,NNW,337,9.6,21.2,59,0.00,,,0.02,Rainwise IP-100,2013-06-12 21:12:00,
2013-06-12 17:17:00,66.1,51.0,29.35,NNE,22,11.7,24.5,59,0.00,,,0.02,Rainwise IP-100,2013-06-12 21:17:00,
2013-06-12 17:22:00,66.1,51.0,29.35,NNE,22,12.1,19.8,60,0.00,,,0.02,Rainwise IP-100,2013-06-12 21:22:00,
2013-06-12 17:27:00,66.2,52.0,29.35,North,360,20.5,23.6,60,0.00,,,0.02,Rainwise IP-100,2013-06-12 21:27:00,
2013-06-12 17:32:00,66.2,52.0,29.35,NNW,337,15.9,20.5,60,0.00,,,0.02,Rainwise IP-100,2013-06-12 21:32:00,
2013-06-12 17:38:00,66.1,51.0,29.35,NNW,337,5.6,21.7,60,0.00,,,0.02,Rainwise IP-100,2013-06-12 21:38:00,
2013-06-12 17:43:00,66.0,51.0,29.35,NNE,22,9.8,15.4,60,0.00,,,0.02,Rainwise IP-100,2013-06-12 21:43:00,
2013-06-12 17:48:00,65.7,51.0,29.35,NNW,337,15.6,20.1,61,0.00,,,0.02,Rainwise IP-100,2013-06-12 21:48:00,
2013-06-12 17:53:00,65.6,51.0,29.35,NNW,337,13.8,18.7,61,0.00,,,0.02,Rainwise IP-100,2013-06-12 21:53:00,
2013-06-12 17:58:00,65.7,51.0,29.35,NNE,22,12.1,17.5,61,0.00,,,0.02,Rainwise IP-100,2013-06-12 21:58:00,
2013-06-12 18:03:00,65.8,52.0,29.35,NNE,22,7.9,15.4,61,0.00,,,0.02,Rainwise IP-100,2013-06-12 22:03:00,
2013-06-12 18:08:00,65.8,52.0,29.36,North,360,8.2,18.7,61,0.00,,,0.02,Rainwise IP-100,2013-06-12 22:08:00,
2013-06-12 18:13:00,65.9,52.0,29.36,NNW,337,3.0,17.5,61,0.00,,,0.02,Rainwise IP-100,2013-06-12 22:13:00,
2013-06-12 18:18:00,65.9,52.0,29.35,NNE,22,3.7,18.2,61,0.00,,,0.02,Rainwise IP-100,2013-06-12 22:18:00,
2013-06-12 18:23:00,65.9,52.0,29.36,NNE,22,4.9,15.9,61,0.00,,,0.02,Rainwise IP-100,2013-06-12 22:23:00,
2013-06-12 18:28:00,66.1,52.0,29.36,NNW,337,16.3,17.3,61,0.00,,,0.02,Rainwise IP-100,2013-06-12 22:28:00,
2013-06-12 18:33:00,66.2,52.0,29.36,NNW,337,8.6,18.4,60,0.00,,,0.02,Rainwise IP-100,2013-06-12 22:33:00,
2013-06-12 18:38:00,66.2,52.0,29.37,NNW,337,7.7,16.1,60,0.00,,,0.02,Rainwise IP-100,2013-06-12 22:38:00,
2013-06-12 18:43:00,66.0,52.0,29.37,NNW,337,8.9,13.1,61,0.00,,,0.02,Rainwise IP-100,2013-06-12 22:43:00,
2013-06-12 18:48:00,65.7,51.0,29.38,WNW,292,5.4,12.8,61,0.00,,,0.02,Rainwise IP-100,2013-06-12 22:48:00,
2013-06-12 18:54:00,65.5,52.0,29.38,NNE,22,4.7,13.5,62,0.00,,,0.02,Rainwise IP-100,2013-06-12 22:54:00,
2013-06-12 18:59:00,65.3,52.0,29.38,NNW,337,4.7,14.5,62,0.00,,,0.02,Rainwise IP-100,2013-06-12 22:59:00,
2013-06-12 19:04:00,65.3,53.0,29.38,NNW,337,7.2,14.7,63,0.00,,,0.02,Rainwise IP-100,2013-06-12 23:04:00,
2013-06-12 19:09:00,65.1,53.0,29.38,NW,315,5.4,9.8,64,0.00,,,0.02,Rainwise IP-100,2013-06-12 23:09:00,
2013-06-12 19:14:00,64.7,52.0,29.38,NNE,22,6.1,9.8,64,0.00,,,0.02,Rainwise IP-100,2013-06-12 23:14:00,
2013-06-12 19:19:00,64.4,53.0,29.39,NNE,22,2.6,11.2,65,0.00,,,0.02,Rainwise IP-100,2013-06-12 23:19:00,
2013-06-12 19:24:00,64.1,53.0,29.39,NNW,337,8.9,11.0,66,0.00,,,0.02,Rainwise IP-100,2013-06-12 23:24:00,
2013-06-12 19:29:00,63.9,53.0,29.40,NNW,337,5.8,10.5,66,0.00,,,0.02,Rainwise IP-100,2013-06-12 23:29:00,
2013-06-12 19:34:00,63.8,53.0,29.40,North,360,3.5,9.1,66,0.00,,,0.02,Rainwise IP-100,2013-06-12 23:34:00,
2013-06-12 19:39:00,63.6,53.0,29.39,NNE,22,2.6,7.9,67,0.00,,,0.02,Rainwise IP-100,2013-06-12 23:39:00,
2013-06-12 19:44:00,63.4,53.0,29.39,NNW,337,3.3,7.7,68,0.00,,,0.02,Rainwise IP-100,2013-06-12 23:44:00,
2013-06-12 19:49:00,63.1,52.0,29.40,NNE,22,1.2,6.5,68,0.00,,,0.02,Rainwise IP-100,2013-06-12 23:49:00,
2013-06-12 19:54:00,62.8,53.0,29.41,North,360,2.6,6.1,69,0.00,,,0.02,Rainwise IP-100,2013-06-12 23:54:00,
2013-06-12 19:59:00,62.5,53.0,29.41,NNW,337,1.9,6.8,70,0.00,,,0.02,Rainwise IP-100,2013-06-12 23:59:00,
2013-06-12 20:04:00,62.3,53.0,29.40,NW,315,3.3,4.7,70,0.00,,,0.02,Rainwise IP-100,2013-06-13 00:04:00,
2013-06-12 20:10:00,62.0,53.0,29.41,NNW,337,0.0,5.8,71,0.00,,,0.02,Rainwise IP-100,2013-06-13 00:10:00,
2013-06-12 20:15:00,61.7,52.0,29.41,NNW,337,2.6,4.7,71,0.00,,,0.02,Rainwise IP-100,2013-06-13 00:15:00,
2013-06-12 20:20:00,61.4,53.0,29.41,North,360,2.3,4.7,72,0.00,,,0.02,Rainwise IP-100,2013-06-13 00:20:00,
2013-06-12 20:25:00,61.1,52.0,29.41,NNW,337,2.3,3.5,73,0.00,,,0.02,Rainwise IP-100,2013-06-13 00:25:00,
2013-06-12 20:30:00,60.8,53.0,29.41,North,360,3.7,3.7,74,0.00,,,0.02,Rainwise IP-100,2013-06-13 00:30:00,
2013-06-12 20:35:00,60.5,52.0,29.41,North,360,0.0,4.9,74,0.00,,,0.02,Rainwise IP-100,2013-06-13 00:35:00,
2013-06-12 20:40:00,60.2,51.0,29.41,NNW,337,0.0,3.7,74,0.00,,,0.02,Rainwise IP-100,2013-06-13 00:40:00,
2013-06-12 20:45:00,60.0,52.0,29.41,NNW,337,0.0,2.8,75,0.00,,,0.02,Rainwise IP-100,2013-06-13 00:45:00,
2013-06-12 20:50:00,59.8,52.0,29.41,NNW,337,0.0,2.8,75,0.00,,,0.02,Rainwise IP-100,2013-06-13 00:50:00,
2013-06-12 20:55:00,59.6,52.0,29.42,WNW,292,0.0,1.6,76,0.00,,,0.02,Rainwise IP-100,2013-06-13 00:55:00,
2013-06-12 21:00:00,59.2,52.0,29.42,WNW,292,0.0,0.0,77,0.00,,,0.02,Rainwise IP-100,2013-06-13 01:00:00,
2013-06-12 21:05:00,58.8,53.0,29.42,SW,225,2.1,2.1,79,0.00,,,0.02,Rainwise IP-100,2013-06-13 01:05:00,
2013-06-12 21:10:00,58.2,53.0,29.43,SSW,202,2.3,2.8,81,0.00,,,0.02,Rainwise IP-100,2013-06-13 01:10:00,
2013-06-12 21:15:00,57.9,53.0,29.42,SSW,202,1.9,2.6,82,0.00,,,0.02,Rainwise IP-100,2013-06-13 01:15:00,
2013-06-12 21:20:00,57.8,53.0,29.43,SSW,202,1.2,1.9,82,0.00,,,0.02,Rainwise IP-100,2013-06-13 01:20:00,
2013-06-12 21:26:00,57.7,53.0,29.43,SSW,202,0.0,1.9,83,0.00,,,0.02,Rainwise IP-100,2013-06-13 01:26:00,
2013-06-12 21:31:00,57.7,53.0,29.43,SSW,202,0.0,0.0,83,0.00,,,0.02,Rainwise IP-100,2013-06-13 01:31:00,
2013-06-12 21:36:00,57.6,53.0,29.42,SSW,202,0.0,0.0,84,0.00,,,0.02,Rainwise IP-100,2013-06-13 01:36:00,
2013-06-12 21:41:00,57.5,53.5,29.43,SSW,202,1.4,1.4,85,0.00,,,0.02,Rainwise IP-100,2013-06-13 01:41:00,
2013-06-12 21:46:00,57.3,53.5,29.43,SSW,202,1.9,2.1,85,0.00,,,0.02,Rainwise IP-100,2013-06-13 01:46:00,
2013-06-12 21:51:00,57.1,53.0,29.43,SSW,202,1.2,1.9,86,0.00,,,0.02,Rainwise IP-100,2013-06-13 01:51:00,
2013-06-12 21:56:00,56.9,53.0,29.43,SSW,202,0.0,1.4,86,0.00,,,0.02,Rainwise IP-100,2013-06-13 01:56:00,
2013-06-12 22:01:00,56.6,53.0,29.43,SSW,202,0.0,1.2,86,0.00,,,0.02,Rainwise IP-100,2013-06-13 02:01:00,
2013-06-12 22:06:00,56.4,53.0,29.43,SSW,202,0.0,1.4,87,0.00,,,0.02,Rainwise IP-100,2013-06-13 02:06:00,
2013-06-12 22:11:00,56.2,52.0,29.43,SSW,202,0.0,1.6,87,0.00,,,0.02,Rainwise IP-100,2013-06-13 02:11:00,
2013-06-12 22:16:00,56.0,52.0,29.43,SSW,202,1.4,1.4,87,0.00,,,0.02,Rainwise IP-100,2013-06-13 02:16:00,
2013-06-12 22:21:00,55.6,53.0,29.43,SSW,202,2.3,2.8,88,0.00,,,0.02,Rainwise IP-100,2013-06-13 02:21:00,
2013-06-12 22:26:00,55.4,52.0,29.43,SSW,202,0.0,2.3,89,0.00,,,0.02,Rainwise IP-100,2013-06-13 02:26:00,
2013-06-12 22:31:00,55.3,53.0,29.43,SSW,202,1.4,1.9,90,0.00,,,0.02,Rainwise IP-100,2013-06-13 02:31:00,
2013-06-12 22:36:00,55.0,53.0,29.43,SSW,202,0.0,1.9,90,0.00,,,0.02,Rainwise IP-100,2013-06-13 02:36:00,
2013-06-12 22:42:00,54.7,52.0,29.43,SSW,202,0.0,0.0,91,0.00,,,0.02,Rainwise IP-100,2013-06-13 02:42:00,
2013-06-12 22:47:00,54.5,52.0,29.43,SSW,202,0.0,0.0,91,0.00,,,0.02,Rainwise IP-100,2013-06-13 02:47:00,
2013-06-12 22:52:00,54.2,52.0,29.43,SSW,202,0.0,0.0,92,0.00,,,0.02,Rainwise IP-100,2013-06-13 02:52:00,
2013-06-12 22:57:00,54.0,52.0,29.43,SSW,202,0.0,0.0,92,0.00,,,0.02,Rainwise IP-100,2013-06-13 02:57:00,
2013-06-12 23:02:00,53.8,52.0,29.43,SSW,202,0.0,0.0,93,0.00,,,0.02,Rainwise IP-100,2013-06-13 03:02:00,
2013-06-12 23:07:00,53.5,52.0,29.43,SSW,202,1.2,1.6,94,0.00,,,0.02,Rainwise IP-100,2013-06-13 03:07:00,
2013-06-12 23:12:00,53.3,52.0,29.43,SSW,202,0.0,2.1,94,0.00,,,0.02,Rainwise IP-100,2013-06-13 03:12:00,
2013-06-12 23:17:00,53.2,51.0,29.43,SSW,202,2.1,2.1,94,0.00,,,0.02,Rainwise IP-100,2013-06-13 03:17:00,
2013-06-12 23:22:00,53.1,51.0,29.43,SSW,202,0.0,2.3,95,0.00,,,0.02,Rainwise IP-100,2013-06-13 03:22:00,
2013-06-12 23:27:00,52.9,51.0,29.43,SSW,202,0.0,1.4,95,0.00,,,0.02,Rainwise IP-100,2013-06-13 03:27:00,
2013-06-12 23:32:00,52.8,51.0,29.43,SSW,202,0.0,1.2,96,0.00,,,0.02,Rainwise IP-100,2013-06-13 03:32:00,
2013-06-12 23:37:00,52.7,51.0,29.43,SSW,202,0.0,1.2,96,0.00,,,0.02,Rainwise IP-100,2013-06-13 03:37:00,
2013-06-12 23:42:00,52.5,51.0,29.43,SSW,202,0.0,0.0,96,0.00,,,0.02,Rainwise IP-100,2013-06-13 03:42:00,
2013-06-12 23:47:00,52.3,51.0,29.43,SSW,202,0.0,0.0,97,0.00,,,0.02,Rainwise IP-100,2013-06-13 03:47:00,
2013-06-12 23:52:00,52.2,51.0,29.43,SSW,202,0.0,0.0,97,0.00,,,0.02,Rainwise IP-100,2013-06-13 03:52:00,
2013-06-12 23:58:00,52.0,51.0,29.43,SSW,202,1.2,1.6,97,0.00,,,0.02,Rainwise IP-100,2013-06-13 03:58:00,